Monday, December 22, 2014
08:29 UTC
  |  Log In   |  Register Free
Airport Search:

Chanute Martin Johnson Airport
(KCNU)

Chanute Martin Johnson Airport Diagram
No Airport Diagram Available

FAA data valid effective November 13, 2014 - January 08, 2015 (unless otherwise noted).

 
 
 
 
 
 
 
 
 
 
 
 
 
 

Current Aviation Weather for Chanute Martin Johnson Airport (KCNU)

The most recent METAR observation for KCNU was updated at: 2112
METAR Summary (Translated METAR)
KCNU
182107Z AUTO 34005KT 2SM BR OVC002 01/01 A3017 RMK AO2 T00110011
KPPF
182052Z AUTO 32006KT 10SM OVC010 03/02 A3018 RMK AO2 SLP226 T00330022 55008
(20.3 nm SW from KCNU)
KIDP
182055Z AUTO 33006G14KT 10SM OVC009 02/01 A3017 RMK AO2
(33.7 nm SW from KCNU)
TAF Summary (Translated TAF)
KCNU
220715Z 2207/2306 16011KT 5SM BR OVC007 TEMPO 2207/2211 2SM -DZ BR OVC004 FM221100 16012KT 4SM BR VCSH OVC008 FM221800 22015KT P6SM VCSH BKN025 FM222100 28015KT P6SM BKN025
  Airport Weather Conditions for KCNU

 Current Weather at CNU
44° F
Fog/Mist
South winds at 12.7 mph
CNU NOAA Radar

Pressure: 29.67 in
Humidity: 96%
Wind: South at 12.7 MPH (11 KT)
Dew Point: 43.0°F
Visibility: 4.00 mi


Airport Weather Forecast for KCNU

Translated METAR and TAF for KCNU
Translated METAR for KCNU (0830 UTC 22 December 2014)
found at http://aviationweather.gov/adds/metars/
 
METAR text: KCNU 220752Z AUTO 16011KT 4SM BR OVC006 07/06 A2967 RMK AO2 SLP047 T00670061
Conditions at: KCNU (CHANUTE , KS, US) observed 0752 UTC 22 December 2014
Temperature: 6.7°C (44°F)
Dewpoint: 6.1°C (43°F) [RH = 96%]
Pressure (altimeter): 29.67 inches Hg (1004.8 mb)
[Sea-level pressure: 1004.7 mb]
Winds: from the SSE (160 degrees) at 13 MPH (11 knots; 5.7 m/s)
Visibility: 4 miles (6 km)
Ceiling: 600 feet AGL
Clouds: overcast cloud deck at 600 feet AGL
Weather: BR  (mist)
Translated TAF for KCNU
Forecast for: KCNU (CHANUTE , KS, US)
TAF Text: KCNU 220715Z 2207/2306 16011KT 5SM BR OVC007
Forecast period: 0700 to 1100 UTC 22 December 2014
Forecast type: FROM: standard forecast or significant change
Winds: from the SSE (160 degrees) at 13 MPH (11 knots; 5.7 m/s)
Visibility: 5 miles (8 km)
Ceiling: 700 feet AGL
Clouds: overcast cloud deck at 700 feet AGL
Weather: BR  (mist)
TAF Text: TEMPO 2207/2211 2SM -DZ BR OVC004
Forecast period: 0700 to 1100 UTC 22 December 2014
Forecast type: TEMPORARY: The following changes expected for less than half the time period
Visibility: 2.00 miles (3.22 km)
Ceiling: 400 feet AGL
Clouds: overcast cloud deck at 400 feet AGL
Weather: -DZ BR  (light drizzle, mist)
TAF Text: FM221100 16012KT 4SM BR VCSH OVC008
Forecast period: 1100 to 1800 UTC 22 December 2014
Forecast type: FROM: standard forecast or significant change
Winds: from the SSE (160 degrees) at 14 MPH (12 knots; 6.2 m/s)
Visibility: 4 miles (6 km)
Ceiling: 800 feet AGL
Clouds: overcast cloud deck at 800 feet AGL
Weather: BR VCSH  (mist, showers in vicinity)
TAF Text: FM221800 22015KT P6SM VCSH BKN025
Forecast period: 1800 to 2100 UTC 22 December 2014
Forecast type: FROM: standard forecast or significant change
Winds: from the SW (220 degrees) at 17 MPH (15 knots; 7.8 m/s)
Visibility: 6 or more miles (10+ km)
Ceiling: 2500 feet AGL
Clouds: broken clouds at 2500 feet AGL
Weather: VCSH  (showers in vicinity)
TAF Text: FM222100 28015KT P6SM BKN025
Forecast period: 2100 UTC 22 December 2014 to 0600 UTC 23 December 2014
Forecast type: FROM: standard forecast or significant change
Winds: from the W (280 degrees) at 17 MPH (15 knots; 7.8 m/s)
Visibility: 6 or more miles (10+ km)
Ceiling: 2500 feet AGL
Clouds: broken clouds at 2500 feet AGL
Weather: no significant weather forecast for this period

Find All Airport Services Find A Hotel Find A Rental Car Find A Golf Course Find A Restaurant $100 Hamburger



FBO's on the Field
FBO Company Facility Photos Services Transportation Aviation Fuel Prices: Prices include tax
Catering Weather Repair Courtesy Rental Type 100LL JetA JetA+ MOGAS 8087
 
City of Chanute

This FBO has not yet been rated
FS:Phillips 66
Last Updated: Nov-14
Login to update fuel prices
SS:
Contact City of ChanuteMore FBO Information
 
Add another FBO Facility Photos Catering Weather Repair Courtesy Rental Type 100LL JetA JetA+ MOGAS 8087
Services Transportation Aviation Fuel Prices: Prices include tax


model-print
model-print
model-print
model-print